KTDF

Person County Airport

Roxboro, North Carolina, USA
METAR KTDF 181515Z AUTO 30008KT 270V330 10SM CLR M05/M13 A3030 RMK AO2
Observed Flight Rules
Jan-18 @ 15:15 UTC (23 minutes ago) Visual Flight Rules
Wind Visibility Clouds
300° at 8 knots 10 miles
  • Clear skies
Temperatures Readings
Current -5°C / 23°F
Dewpoint -13°C / 9°F
Humidity 54%
Altimeter 30.3" Hg
Pressure 1026 hPa
Elevation 186
METAR KTDF 181515Z AUTO 30008KT 270V330 10SM CLR M05/M13 A3030 RMK AO2
Observed Flight Rules
Jan-18 @ 15:15 UTC
(23 minutes ago)
VFR
Wind Visibility
300° at 8 knots 10 miles
Clouds
  • Clear skies
Temperature Dewpoint
-5°C / 23°F -13°C / 9°F
Humidity Altimeter Pressure
54% 30.3" Hg 1026 hPa